Time;durP1;ratioP1;P1;durP2;ratioP2;P2;SDS_P1;SDS_P2;PMS_P1;PMS_P2;Temp;Humidity;BMP_temperature;BMP_pressure;BME280_temperature;BME280_humidity;BME280_pressure;Samples;Min_cycle;Max_cycle;Signal;HPM_P1;HPM_P2
2023/03/15 00:02:00;;;;;;;5.65;2.53;;;;;;;;;;5123656;27;20225;-66
2023/03/15 00:04:27;;;;;;;5.90;2.25;;;;;;;;;;5113838;28;20232;-65
2023/03/15 00:06:54;;;;;;;10.60;2.85;;;;;;;;;;5113735;28;20198;-66
2023/03/15 00:09:23;;;;;;;6.45;2.38;;;;;;;;;;5115981;28;20656;-66
2023/03/15 00:11:50;;;;;;;7.95;2.80;;;;;;;;;;5113953;28;20618;-66
2023/03/15 00:14:18;;;;;;;5.72;2.08;;;;;;;;;;5114688;28;20240;-66
2023/03/15 00:16:45;;;;;;;7.05;2.42;;;;;;;;;;5113842;28;20211;-66
2023/03/15 00:19:12;;;;;;;4.47;2.13;;;;;;;;;;5114459;28;20195;-66
2023/03/15 00:21:42;;;;;;;9.27;4.97;;;;;;;;;;5113876;28;20198;-66
2023/03/15 00:24:09;;;;;;;7.95;2.90;;;;;;;;;;5114165;28;20673;-66
2023/03/15 00:26:38;;;;;;;5.57;2.20;;;;;;;;;;5114096;28;20198;-65
2023/03/15 00:29:05;;;;;;;7.07;2.40;;;;;;;;;;5113775;28;20187;-66
2023/03/15 00:31:32;;;;;;;3.78;1.85;;;;;;;;;;5113452;28;20195;-66
2023/03/15 00:34:00;;;;;;;3.83;2.05;;;;;;;;;;5113463;28;20192;-65
2023/03/15 00:36:27;;;;;;;5.57;2.50;;;;;;;;;;5113295;28;20218;-65
2023/03/15 00:38:54;;;;;;;4.38;2.30;;;;;;;;;;5113439;28;20193;-65
2023/03/15 00:41:22;;;;;;;3.00;2.08;;;;;;;;;;5113720;28;20188;-65
2023/03/15 00:43:51;;;;;;;3.22;2.10;;;;;;;;;;5113679;28;20192;-64
2023/03/15 00:46:19;;;;;;;7.65;2.92;;;;;;;;;;5113319;28;20192;-65
2023/03/15 00:48:48;;;;;;;3.63;2.47;;;;;;;;;;5114177;28;20188;-66
2023/03/15 00:51:16;;;;;;;5.20;2.75;;;;;;;;;;5113652;28;20192;-66
2023/03/15 00:53:44;;;;;;;5.95;3.17;;;;;;;;;;5113389;28;20191;-66
2023/03/15 00:56:13;;;;;;;10.30;3.47;;;;;;;;;;5113496;28;20537;-66
2023/03/15 00:58:40;;;;;;;5.25;2.30;;;;;;;;;;5113558;28;20197;-66
2023/03/15 01:01:09;;;;;;;3.80;2.00;;;;;;;;;;5115375;28;20194;-66
2023/03/15 01:03:36;;;;;;;5.40;1.98;;;;;;;;;;5113812;28;20220;-67
2023/03/15 01:06:07;;;;;;;12.65;3.50;;;;;;;;;;5113450;28;20198;-67
2023/03/15 01:08:34;;;;;;;5.93;2.20;;;;;;;;;;5115845;27;20189;-68
2023/03/15 01:11:05;;;;;;;10.77;2.88;;;;;;;;;;5113476;28;20196;-68
2023/03/15 01:13:32;;;;;;;8.98;3.15;;;;;;;;;;5113768;28;20190;-66
2023/03/15 01:15:59;;;;;;;3.20;2.28;;;;;;;;;;5113272;28;20269;-66
2023/03/15 01:18:28;;;;;;;5.47;2.80;;;;;;;;;;5113087;28;20198;-67
2023/03/15 01:20:55;;;;;;;2.30;2.10;;;;;;;;;;5117460;28;20192;-67
2023/03/15 01:23:22;;;;;;;5.20;2.42;;;;;;;;;;5117291;28;20187;-66
2023/03/15 01:25:49;;;;;;;3.65;2.35;;;;;;;;;;5117197;28;20202;-66
2023/03/15 01:28:17;;;;;;;5.32;2.95;;;;;;;;;;5117021;28;20199;-66
2023/03/15 01:30:49;;;;;;;4.43;2.83;;;;;;;;;;5117011;28;20200;-66
2023/03/15 01:33:16;;;;;;;3.22;2.72;;;;;;;;;;5117170;28;20292;-66
2023/03/15 01:35:45;;;;;;;5.85;2.50;;;;;;;;;;5117265;28;20187;-67
2023/03/15 01:38:12;;;;;;;3.72;3.10;;;;;;;;;;5116339;28;20218;-66
2023/03/15 01:40:41;;;;;;;3.17;2.95;;;;;;;;;;5116798;28;20599;-66
2023/03/15 01:43:16;;;;;;;4.45;2.60;;;;;;;;;;5116652;28;20195;-66
2023/03/15 01:46:00;;;;;;;4.45;3.35;;;;;;;;;;5116330;28;20190;-67
2023/03/15 01:48:30;;;;;;;4.65;2.92;;;;;;;;;;5116223;28;20177;-66
2023/03/15 01:50:58;;;;;;;5.85;3.33;;;;;;;;;;5116941;28;20201;-66
2023/03/15 01:53:27;;;;;;;3.65;3.35;;;;;;;;;;5116519;28;20278;-66
2023/03/15 01:55:54;;;;;;;3.90;3.60;;;;;;;;;;5116708;28;20217;-66
2023/03/15 01:58:22;;;;;;;5.90;4.05;;;;;;;;;;5116300;28;20207;-67
2023/03/15 02:00:51;;;;;;;6.43;3.90;;;;;;;;;;5117645;27;20645;-67
2023/03/15 02:03:19;;;;;;;4.65;4.25;;;;;;;;;;5116695;27;20218;-67
2023/03/15 02:05:48;;;;;;;6.00;4.15;;;;;;;;;;5116009;28;20192;-67
2023/03/15 02:08:18;;;;;;;5.03;4.43;;;;;;;;;;5118364;27;20198;-67
2023/03/15 02:10:47;;;;;;;6.55;5.15;;;;;;;;;;5115846;28;20632;-67
2023/03/15 02:13:17;;;;;;;5.50;4.65;;;;;;;;;;5116204;28;20197;-66
2023/03/15 02:15:45;;;;;;;5.45;4.90;;;;;;;;;;5116589;28;20548;-66
2023/03/15 02:18:12;;;;;;;4.93;4.50;;;;;;;;;;5115877;28;20219;-66
2023/03/15 02:20:42;;;;;;;13.02;6.60;;;;;;;;;;5116006;28;20191;-66
2023/03/15 02:23:11;;;;;;;7.05;6.35;;;;;;;;;;5115631;28;20192;-66
2023/03/15 02:25:43;;;;;;;12.55;6.68;;;;;;;;;;5115919;28;20195;-67
2023/03/15 02:28:13;;;;;;;10.52;7.57;;;;;;;;;;5115992;28;20187;-66
2023/03/15 02:30:40;;;;;;;7.35;6.55;;;;;;;;;;5115912;28;20194;-67
2023/03/15 02:33:09;;;;;;;8.65;6.82;;;;;;;;;;5115367;28;20192;-67
2023/03/15 02:35:36;;;;;;;10.35;7.32;;;;;;;;;;5115391;28;20192;-66
2023/03/15 02:38:04;;;;;;;10.20;7.20;;;;;;;;;;5115178;28;20218;-66
2023/03/15 02:40:31;;;;;;;11.77;7.35;;;;;;;;;;5115256;28;20191;-66
2023/03/15 02:43:01;;;;;;;10.45;6.72;;;;;;;;;;5115737;28;20633;-66
2023/03/15 02:45:31;;;;;;;12.32;7.70;;;;;;;;;;5115544;28;20223;-66
2023/03/15 02:47:59;;;;;;;9.60;7.70;;;;;;;;;;5115340;28;20195;-65
2023/03/15 02:50:26;;;;;;;16.38;8.25;;;;;;;;;;5115423;28;20195;-66
2023/03/15 02:52:53;;;;;;;9.13;8.20;;;;;;;;;;5115243;28;20192;-65
2023/03/15 02:55:21;;;;;;;7.93;7.07;;;;;;;;;;5115264;28;20206;-65
2023/03/15 02:57:48;;;;;;;8.65;7.15;;;;;;;;;;5114730;28;20672;-65
2023/03/15 03:00:16;;;;;;;11.45;6.68;;;;;;;;;;5115221;28;20187;-65
2023/03/15 03:02:46;;;;;;;11.02;7.80;;;;;;;;;;5117207;27;20657;-65
2023/03/15 03:05:14;;;;;;;10.60;6.40;;;;;;;;;;5114790;28;20196;-65
2023/03/15 03:07:41;;;;;;;15.93;7.65;;;;;;;;;;5115402;27;20196;-65
2023/03/15 03:10:09;;;;;;;12.52;7.45;;;;;;;;;;5116115;27;20648;-65
2023/03/15 03:12:36;;;;;;;10.23;9.13;;;;;;;;;;5114617;28;20209;-66
2023/03/15 03:15:04;;;;;;;11.00;7.35;;;;;;;;;;5115052;28;20532;-66
2023/03/15 03:17:36;;;;;;;10.30;8.00;;;;;;;;;;5114406;28;20218;-66
2023/03/15 03:20:06;;;;;;;12.13;7.63;;;;;;;;;;5114637;28;20176;-66
2023/03/15 03:22:34;;;;;;;10.80;8.55;;;;;;;;;;5114821;28;20294;-66
2023/03/15 03:25:01;;;;;;;11.82;8.35;;;;;;;;;;5115240;28;20240;-65
2023/03/15 03:27:28;;;;;;;11.63;8.77;;;;;;;;;;5114574;28;20499;-66
2023/03/15 03:29:55;;;;;;;10.70;8.20;;;;;;;;;;5114651;28;20196;-66
2023/03/15 03:32:23;;;;;;;13.85;8.68;;;;;;;;;;5114334;28;20198;-66
2023/03/15 03:34:50;;;;;;;12.02;9.50;;;;;;;;;;5114204;28;20191;-66
2023/03/15 03:37:19;;;;;;;15.90;9.15;;;;;;;;;;5114529;28;20274;-66
2023/03/15 03:39:46;;;;;;;15.32;8.55;;;;;;;;;;5114157;28;20195;-66
2023/03/15 03:42:14;;;;;;;12.55;7.65;;;;;;;;;;5113704;28;20186;-66
2023/03/15 03:44:41;;;;;;;10.02;7.95;;;;;;;;;;5114159;28;20188;-66
2023/03/15 03:47:08;;;;;;;10.48;7.22;;;;;;;;;;5114043;28;20667;-66
2023/03/15 03:49:36;;;;;;;13.63;7.90;;;;;;;;;;5114230;28;20208;-66
2023/03/15 03:52:03;;;;;;;9.60;7.35;;;;;;;;;;5114387;28;20200;-66
2023/03/15 03:54:32;;;;;;;12.70;7.85;;;;;;;;;;5113908;28;20660;-66
2023/03/15 03:56:59;;;;;;;11.98;7.93;;;;;;;;;;5114216;28;20195;-66
2023/03/15 03:59:26;;;;;;;13.60;8.23;;;;;;;;;;5114367;28;20212;-67
2023/03/15 04:01:53;;;;;;;9.85;7.78;;;;;;;;;;5116565;27;20211;-66
2023/03/15 04:04:20;;;;;;;10.52;7.72;;;;;;;;;;5132600;27;20218;-67
2023/03/15 04:06:49;;;;;;;13.23;7.82;;;;;;;;;;5134544;27;20218;-67
2023/03/15 04:09:17;;;;;;;11.20;7.75;;;;;;;;;;5121137;27;20521;-67
2023/03/15 04:11:46;;;;;;;12.07;8.40;;;;;;;;;;5113869;28;20191;-66
2023/03/15 04:14:13;;;;;;;13.23;8.98;;;;;;;;;;5113627;28;20550;-67
2023/03/15 04:16:41;;;;;;;12.80;8.73;;;;;;;;;;5113580;28;20190;-66
2023/03/15 04:19:08;;;;;;;11.55;8.60;;;;;;;;;;5113822;28;20243;-66
2023/03/15 04:21:36;;;;;;;11.00;7.35;;;;;;;;;;5113557;28;20195;-66
2023/03/15 04:24:04;;;;;;;11.23;8.02;;;;;;;;;;5113837;28;20221;-66
2023/03/15 04:26:33;;;;;;;12.38;7.95;;;;;;;;;;5113372;28;20200;-66
2023/03/15 04:29:03;;;;;;;11.40;7.50;;;;;;;;;;5113378;28;20208;-66
2023/03/15 04:31:36;;;;;;;16.92;8.02;;;;;;;;;;5113793;28;20190;-66
2023/03/15 04:34:04;;;;;;;13.95;8.50;;;;;;;;;;5131148;28;20190;-66
2023/03/15 04:36:31;;;;;;;10.43;6.80;;;;;;;;;;5133854;28;20197;-66
2023/03/15 04:39:04;;;;;;;14.77;8.57;;;;;;;;;;5134199;28;20213;-66
2023/03/15 04:41:33;;;;;;;12.48;7.78;;;;;;;;;;5134139;28;20270;-66
2023/03/15 04:44:02;;;;;;;12.98;8.35;;;;;;;;;;5133866;28;20191;-66
2023/03/15 04:46:29;;;;;;;14.95;8.43;;;;;;;;;;5134080;28;20199;-66
2023/03/15 04:48:56;;;;;;;13.02;8.50;;;;;;;;;;5134374;28;20201;-66
2023/03/15 04:51:23;;;;;;;12.88;7.95;;;;;;;;;;5134116;28;20220;-66
2023/03/15 04:53:51;;;;;;;10.55;8.30;;;;;;;;;;5134510;27;20190;-66
2023/03/15 04:56:18;;;;;;;13.45;8.48;;;;;;;;;;5137488;27;20189;-66
2023/03/15 04:58:45;;;;;;;14.43;8.13;;;;;;;;;;5137823;27;20231;-66
2023/03/15 05:01:14;;;;;;;13.70;8.20;;;;;;;;;;5137614;27;20714;-66
2023/03/15 05:03:41;;;;;;;15.13;9.10;;;;;;;;;;5137359;27;20236;-66
2023/03/15 05:06:08;;;;;;;12.80;8.70;;;;;;;;;;5137636;27;20190;-66
2023/03/15 05:08:36;;;;;;;11.43;7.55;;;;;;;;;;5137837;27;20191;-66
2023/03/15 05:11:03;;;;;;;10.80;7.05;;;;;;;;;;5137758;27;20213;-66
2023/03/15 05:13:30;;;;;;;9.05;7.07;;;;;;;;;;5137749;27;20195;-66
2023/03/15 05:15:57;;;;;;;14.45;7.50;;;;;;;;;;5137701;27;20187;-66
2023/03/15 05:18:26;;;;;;;16.77;8.80;;;;;;;;;;5137581;27;20217;-66
2023/03/15 05:20:54;;;;;;;25.75;7.53;;;;;;;;;;5137225;27;20201;-66
2023/03/15 05:23:22;;;;;;;13.82;6.68;;;;;;;;;;5137283;27;20220;-66
2023/03/15 05:25:53;;;;;;;9.13;7.25;;;;;;;;;;5137517;27;20201;-67
2023/03/15 05:28:20;;;;;;;8.73;6.28;;;;;;;;;;5137275;27;20189;-67
2023/03/15 05:30:48;;;;;;;10.27;7.50;;;;;;;;;;5137206;27;20195;-66
2023/03/15 05:33:15;;;;;;;12.88;7.05;;;;;;;;;;5137075;27;20190;-66
2023/03/15 05:35:44;;;;;;;14.55;6.50;;;;;;;;;;5137199;27;20656;-66
2023/03/15 05:38:13;;;;;;;12.60;7.82;;;;;;;;;;5136725;27;20672;-66
2023/03/15 05:40:41;;;;;;;14.57;6.93;;;;;;;;;;5137265;27;20196;-66
2023/03/15 05:43:08;;;;;;;10.63;6.82;;;;;;;;;;5137115;27;20243;-66
2023/03/15 05:45:35;;;;;;;9.63;7.10;;;;;;;;;;5136574;27;20197;-66
2023/03/15 05:53:22;;;;;;;8.07;5.45;;;;;;;;;;5229129;23;20225;-69
2023/03/15 05:55:49;;;;;;;10.20;6.40;;;;;;;;;;4976357;28;20206;-69
2023/03/15 05:58:16;;;;;;;12.45;6.85;;;;;;;;;;4976627;28;20223;-69
2023/03/15 06:00:43;;;;;;;16.35;7.20;;;;;;;;;;4976685;28;20208;-69
2023/03/15 06:03:11;;;;;;;9.57;6.55;;;;;;;;;;4976761;28;20291;-69
2023/03/15 06:05:38;;;;;;;12.70;6.53;;;;;;;;;;4975943;28;20197;-69
2023/03/15 06:08:05;;;;;;;10.18;6.63;;;;;;;;;;4976358;28;20214;-70
2023/03/15 06:10:34;;;;;;;13.40;6.38;;;;;;;;;;4977061;28;20201;-69
2023/03/15 06:13:01;;;;;;;9.40;6.00;;;;;;;;;;4976974;28;20688;-69
2023/03/15 06:15:28;;;;;;;9.75;6.80;;;;;;;;;;4976848;28;20292;-69
2023/03/15 06:17:56;;;;;;;16.05;6.20;;;;;;;;;;4976549;28;20221;-69
2023/03/15 06:20:23;;;;;;;13.27;6.47;;;;;;;;;;4976657;28;20211;-68
2023/03/15 06:22:50;;;;;;;11.50;7.43;;;;;;;;;;4976245;28;20197;-69
2023/03/15 06:25:17;;;;;;;15.32;7.97;;;;;;;;;;4976037;28;20208;-69
2023/03/15 06:27:46;;;;;;;13.60;7.20;;;;;;;;;;4976124;28;20211;-69
2023/03/15 06:30:13;;;;;;;21.25;7.85;;;;;;;;;;4976681;28;20203;-68
2023/03/15 06:32:41;;;;;;;14.65;6.95;;;;;;;;;;4975885;28;20200;-68
2023/03/15 06:35:08;;;;;;;8.93;6.28;;;;;;;;;;4975782;28;20211;-69
2023/03/15 06:37:35;;;;;;;11.57;7.05;;;;;;;;;;4976063;28;20215;-69
2023/03/15 06:40:04;;;;;;;10.00;6.53;;;;;;;;;;4976110;28;20671;-68
2023/03/15 06:42:31;;;;;;;14.95;7.82;;;;;;;;;;4976065;28;20198;-69
2023/03/15 06:45:01;;;;;;;9.10;6.70;;;;;;;;;;4976043;28;20197;-69
2023/03/15 06:47:28;;;;;;;7.50;5.72;;;;;;;;;;4975391;28;20212;-69
2023/03/15 06:49:55;;;;;;;15.75;6.82;;;;;;;;;;4976243;28;20231;-69
2023/03/15 06:52:22;;;;;;;12.70;6.63;;;;;;;;;;4975947;28;20205;-68
2023/03/15 06:54:50;;;;;;;8.07;5.50;;;;;;;;;;4975634;28;20696;-69
2023/03/15 06:57:17;;;;;;;8.95;6.85;;;;;;;;;;4975604;28;20201;-68
2023/03/15 06:59:44;;;;;;;9.25;5.72;;;;;;;;;;4975645;28;20224;-68
2023/03/15 07:02:15;;;;;;;13.00;7.63;;;;;;;;;;4975826;28;20543;-68
2023/03/15 07:04:43;;;;;;;18.33;6.15;;;;;;;;;;4975666;28;20614;-69
2023/03/15 07:07:10;;;;;;;11.90;5.50;;;;;;;;;;4975336;28;20200;-68
2023/03/15 07:09:38;;;;;;;14.05;5.90;;;;;;;;;;4975344;28;20209;-69
2023/03/15 07:12:06;;;;;;;8.32;5.78;;;;;;;;;;4975193;28;20232;-68
2023/03/15 07:14:33;;;;;;;9.38;6.47;;;;;;;;;;4975507;28;20220;-68
2023/03/15 07:17:01;;;;;;;10.55;5.85;;;;;;;;;;4974565;28;20226;-69
2023/03/15 07:19:29;;;;;;;11.18;4.88;;;;;;;;;;4975399;28;20228;-69
2023/03/15 07:21:56;;;;;;;11.50;5.55;;;;;;;;;;4974913;28;20210;-68
2023/03/15 07:24:24;;;;;;;12.60;5.45;;;;;;;;;;4975270;28;20201;-68
2023/03/15 07:26:55;;;;;;;18.75;5.70;;;;;;;;;;4975290;28;20194;-69
2023/03/15 07:29:22;;;;;;;10.70;5.25;;;;;;;;;;4975170;28;20611;-70
2023/03/15 07:31:49;;;;;;;12.85;5.63;;;;;;;;;;4974961;28;20729;-70
2023/03/15 07:34:16;;;;;;;8.30;4.82;;;;;;;;;;4975192;28;20625;-69
2023/03/15 07:36:45;;;;;;;7.72;5.90;;;;;;;;;;4975230;28;20557;-69
2023/03/15 07:39:12;;;;;;;9.35;5.72;;;;;;;;;;4974578;28;20224;-70
2023/03/15 07:41:40;;;;;;;10.35;6.95;;;;;;;;;;4975267;28;20223;-69
2023/03/15 07:44:07;;;;;;;12.45;5.40;;;;;;;;;;4975119;28;20200;-70
2023/03/15 07:46:34;;;;;;;13.32;5.07;;;;;;;;;;4975025;28;20610;-69
2023/03/15 07:49:02;;;;;;;8.88;5.53;;;;;;;;;;4974551;28;20220;-69
2023/03/15 07:51:29;;;;;;;12.18;5.57;;;;;;;;;;4974540;28;20199;-68
2023/03/15 07:53:57;;;;;;;17.48;6.10;;;;;;;;;;4974257;28;20585;-70
2023/03/15 07:56:24;;;;;;;12.57;6.57;;;;;;;;;;4974915;28;20215;-70
2023/03/15 07:58:52;;;;;;;11.45;5.65;;;;;;;;;;4974755;28;20222;-69
2023/03/15 08:01:20;;;;;;;7.53;5.40;;;;;;;;;;4974744;28;20203;-70
2023/03/15 08:03:47;;;;;;;13.15;5.38;;;;;;;;;;4974397;28;20293;-69
2023/03/15 08:06:14;;;;;;;12.68;6.15;;;;;;;;;;4974548;28;20202;-69
2023/03/15 08:08:42;;;;;;;11.30;5.00;;;;;;;;;;4973996;28;20205;-70
2023/03/15 08:11:10;;;;;;;8.85;4.72;;;;;;;;;;4973887;28;20231;-70
2023/03/15 08:13:37;;;;;;;11.65;5.13;;;;;;;;;;4974408;28;20296;-69
2023/03/15 08:16:05;;;;;;;18.70;4.60;;;;;;;;;;4974598;28;20201;-69
2023/03/15 08:18:32;;;;;;;13.63;4.65;;;;;;;;;;4974298;28;20646;-70
2023/03/15 08:20:59;;;;;;;6.25;4.40;;;;;;;;;;4974711;28;20207;-70
2023/03/15 08:23:27;;;;;;;7.97;5.03;;;;;;;;;;4974106;28;20196;-69
2023/03/15 08:25:54;;;;;;;12.38;4.53;;;;;;;;;;4974126;28;20670;-70
2023/03/15 08:28:23;;;;;;;12.68;4.10;;;;;;;;;;4975779;28;20697;-69
2023/03/15 08:30:50;;;;;;;7.78;5.10;;;;;;;;;;4978496;28;20277;-70
2023/03/15 08:33:17;;;;;;;8.85;4.13;;;;;;;;;;4978010;28;20210;-68
2023/03/15 08:35:44;;;;;;;11.10;5.00;;;;;;;;;;4978414;28;20203;-69
2023/03/15 08:38:12;;;;;;;8.15;4.28;;;;;;;;;;4978100;28;20213;-68
2023/03/15 08:40:39;;;;;;;9.98;4.78;;;;;;;;;;4978014;28;20205;-68
2023/03/15 08:43:06;;;;;;;10.80;4.13;;;;;;;;;;4978087;28;20303;-69
2023/03/15 08:45:35;;;;;;;8.02;4.30;;;;;;;;;;4977916;28;20291;-69
2023/03/15 08:48:02;;;;;;;14.32;4.78;;;;;;;;;;4977688;28;20209;-69
2023/03/15 08:50:30;;;;;;;11.60;4.97;;;;;;;;;;4977834;28;20684;-68
2023/03/15 08:52:58;;;;;;;6.13;3.95;;;;;;;;;;4977380;28;20239;-68
2023/03/15 08:55:25;;;;;;;7.00;5.20;;;;;;;;;;4978014;28;20198;-67
2023/03/15 08:57:52;;;;;;;9.27;4.90;;;;;;;;;;4977934;28;20641;-68
2023/03/15 09:00:21;;;;;;;13.43;4.75;;;;;;;;;;4977485;28;20223;-68
2023/03/15 09:02:50;;;;;;;12.80;5.90;;;;;;;;;;4977623;28;20247;-68
2023/03/15 09:05:18;;;;;;;9.00;4.82;;;;;;;;;;4977398;28;20291;-69
2023/03/15 09:07:46;;;;;;;6.03;4.57;;;;;;;;;;4977764;28;20211;-68
2023/03/15 09:10:14;;;;;;;12.90;5.75;;;;;;;;;;4977929;28;20204;-67
2023/03/15 09:12:41;;;;;;;15.65;5.47;;;;;;;;;;4977440;28;20197;-67
2023/03/15 09:15:10;;;;;;;8.65;4.43;;;;;;;;;;4977599;28;20282;-68
2023/03/15 09:17:37;;;;;;;11.48;4.97;;;;;;;;;;4977431;28;20235;-67
2023/03/15 09:20:11;;;;;;;8.05;4.60;;;;;;;;;;4977613;28;20224;-67
2023/03/15 09:22:38;;;;;;;9.50;4.15;;;;;;;;;;4977473;28;20194;-67
2023/03/15 09:25:06;;;;;;;12.30;4.95;;;;;;;;;;4977233;28;20209;-67
2023/03/15 09:27:33;;;;;;;8.27;4.10;;;;;;;;;;4977976;28;20203;-68
2023/03/15 09:30:00;;;;;;;9.60;5.47;;;;;;;;;;4977427;28;20199;-68
2023/03/15 09:32:28;;;;;;;11.88;3.95;;;;;;;;;;4977173;28;20215;-69
2023/03/15 09:34:55;;;;;;;12.88;4.10;;;;;;;;;;4977222;28;20204;-67
2023/03/15 09:37:25;;;;;;;6.18;3.05;;;;;;;;;;4976823;28;20683;-67
2023/03/15 09:39:52;;;;;;;13.48;3.90;;;;;;;;;;4975855;28;20215;-68
2023/03/15 09:42:23;;;;;;;5.28;3.45;;;;;;;;;;4976922;28;20204;-67
2023/03/15 09:44:53;;;;;;;8.85;4.15;;;;;;;;;;4976958;28;20646;-67
2023/03/15 09:47:27;;;;;;;12.98;5.15;;;;;;;;;;4976320;28;20291;-66
2023/03/15 09:49:55;;;;;;;12.35;3.88;;;;;;;;;;4976085;28;20197;-67
2023/03/15 09:52:27;;;;;;;10.38;4.13;;;;;;;;;;4976318;28;20211;-68
2023/03/15 09:54:57;;;;;;;8.75;3.70;;;;;;;;;;4975941;28;20235;-67
2023/03/15 09:57:26;;;;;;;5.95;3.08;;;;;;;;;;4976129;28;20211;-66
2023/03/15 09:59:54;;;;;;;8.05;4.18;;;;;;;;;;4976371;28;20222;-67
2023/03/15 10:02:24;;;;;;;9.48;3.70;;;;;;;;;;4976176;28;20206;-67
2023/03/15 10:04:54;;;;;;;9.32;3.40;;;;;;;;;;4976465;28;20200;-67
2023/03/15 10:07:21;;;;;;;7.20;3.67;;;;;;;;;;4976808;28;20190;-67
2023/03/15 10:09:50;;;;;;;3.60;3.30;;;;;;;;;;4976585;28;20205;-67
2023/03/15 10:12:22;;;;;;;6.28;2.88;;;;;;;;;;4976634;28;20200;-66
2023/03/15 10:14:57;;;;;;;7.15;4.00;;;;;;;;;;4976693;28;20191;-66
2023/03/15 10:17:29;;;;;;;4.47;3.03;;;;;;;;;;4976406;28;20542;-66
2023/03/15 10:20:00;;;;;;;5.60;3.63;;;;;;;;;;4976030;28;20222;-66
2023/03/15 10:22:30;;;;;;;4.72;3.30;;;;;;;;;;4975963;28;20657;-66
2023/03/15 10:25:02;;;;;;;7.13;2.28;;;;;;;;;;4976297;28;20194;-66
2023/03/15 10:27:34;;;;;;;8.63;2.53;;;;;;;;;;4976720;28;20184;-66
2023/03/15 10:30:02;;;;;;;6.50;3.00;;;;;;;;;;4976255;28;20192;-66
2023/03/15 10:32:31;;;;;;;5.13;2.40;;;;;;;;;;4975760;28;20201;-65
2023/03/15 10:34:59;;;;;;;6.00;2.90;;;;;;;;;;4976044;28;20204;-65
2023/03/15 10:37:27;;;;;;;7.18;4.55;;;;;;;;;;4976197;28;20290;-66
2023/03/15 10:39:56;;;;;;;6.53;2.22;;;;;;;;;;4976479;28;20218;-66
2023/03/15 10:42:29;;;;;;;3.05;2.10;;;;;;;;;;4976356;28;20571;-65
2023/03/15 10:44:56;;;;;;;6.28;2.78;;;;;;;;;;4975865;28;20196;-65
2023/03/15 10:47:24;;;;;;;6.22;2.30;;;;;;;;;;4975750;28;20292;-65
2023/03/15 10:49:56;;;;;;;8.00;2.40;;;;;;;;;;4976056;28;20204;-65
2023/03/15 10:52:34;;;;;;;5.20;2.20;;;;;;;;;;4975606;28;20186;-66
2023/03/15 10:55:02;;;;;;;4.57;2.03;;;;;;;;;;4975687;28;20199;-66
2023/03/15 10:57:33;;;;;;;7.47;1.67;;;;;;;;;;4975566;28;20210;-65
2023/03/15 11:00:16;;;;;;;3.67;1.88;;;;;;;;;;4975795;28;20218;-66
2023/03/15 11:02:49;;;;;;;5.97;2.20;;;;;;;;;;4975816;28;20217;-66
2023/03/15 11:05:17;;;;;;;4.00;1.75;;;;;;;;;;4976053;28;20189;-65
2023/03/15 11:07:54;;;;;;;7.53;3.17;;;;;;;;;;4975647;28;20204;-66
2023/03/15 11:10:22;;;;;;;3.47;1.55;;;;;;;;;;4975745;28;20191;-65
2023/03/15 11:12:51;;;;;;;3.92;1.40;;;;;;;;;;4975447;28;20197;-65
2023/03/15 11:15:19;;;;;;;4.30;1.77;;;;;;;;;;4975821;28;20254;-65
2023/03/15 11:17:47;;;;;;;3.88;1.48;;;;;;;;;;4975471;28;20198;-65
2023/03/15 11:20:24;;;;;;;11.50;1.77;;;;;;;;;;4975342;28;20221;-65
2023/03/15 11:22:52;;;;;;;4.63;2.03;;;;;;;;;;4975489;28;20386;-65
2023/03/15 11:25:22;;;;;;;5.93;1.90;;;;;;;;;;4975096;28;20631;-66
2023/03/15 11:27:52;;;;;;;5.00;2.08;;;;;;;;;;4975364;28;20211;-66
2023/03/15 11:30:22;;;;;;;3.42;2.05;;;;;;;;;;4975770;28;20192;-66
2023/03/15 11:32:49;;;;;;;3.17;1.42;;;;;;;;;;4975587;28;20558;-67
2023/03/15 11:35:20;;;;;;;5.53;3.47;;;;;;;;;;4975308;28;20205;-66
2023/03/15 11:37:48;;;;;;;3.70;2.22;;;;;;;;;;4974918;28;20202;-66
2023/03/15 11:40:18;;;;;;;3.97;2.08;;;;;;;;;;4975170;28;20224;-66
2023/03/15 11:42:48;;;;;;;4.07;1.60;;;;;;;;;;4975063;28;20193;-66
2023/03/15 11:45:19;;;;;;;2.80;1.65;;;;;;;;;;4975636;28;20189;-64
2023/03/15 11:47:50;;;;;;;3.78;1.58;;;;;;;;;;4974906;28;20668;-63
2023/03/15 11:50:17;;;;;;;3.50;1.55;;;;;;;;;;4974986;28;20646;-63
2023/03/15 11:52:48;;;;;;;12.50;2.17;;;;;;;;;;4972908;28;20194;-63
2023/03/15 11:55:17;;;;;;;6.88;1.77;;;;;;;;;;4973835;28;20255;-63
2023/03/15 11:57:46;;;;;;;6.15;1.80;;;;;;;;;;4973796;28;20198;-64
2023/03/15 12:00:33;;;;;;;6.03;1.55;;;;;;;;;;4973685;28;20769;-64
2023/03/15 12:03:21;;;;;;;2.60;1.70;;;;;;;;;;4964545;28;20212;-64
2023/03/15 12:05:52;;;;;;;4.53;1.45;;;;;;;;;;4974325;28;20229;-63
2023/03/15 12:08:21;;;;;;;4.35;1.73;;;;;;;;;;4974085;28;20181;-63
2023/03/15 12:10:49;;;;;;;4.40;1.55;;;;;;;;;;4973821;28;20201;-63
2023/03/15 12:13:27;;;;;;;2.60;1.67;;;;;;;;;;4973753;28;20565;-63
2023/03/15 12:15:54;;;;;;;4.00;2.10;;;;;;;;;;4974239;28;20204;-63
2023/03/15 12:18:23;;;;;;;5.43;1.85;;;;;;;;;;4974108;28;20216;-63
2023/03/15 12:20:53;;;;;;;3.42;1.70;;;;;;;;;;4973881;28;20256;-63
2023/03/15 12:23:23;;;;;;;2.85;1.77;;;;;;;;;;4973405;28;20205;-63
2023/03/15 12:25:53;;;;;;;2.63;1.52;;;;;;;;;;4974033;28;20197;-63
2023/03/15 12:28:21;;;;;;;2.28;1.40;;;;;;;;;;4974347;28;20631;-63
2023/03/15 12:30:53;;;;;;;4.00;1.80;;;;;;;;;;4974496;28;20201;-63
2023/03/15 12:33:21;;;;;;;4.47;2.00;;;;;;;;;;4973764;28;20220;-63
2023/03/15 12:35:49;;;;;;;4.25;1.60;;;;;;;;;;4974020;28;20201;-63
2023/03/15 12:38:19;;;;;;;4.35;1.40;;;;;;;;;;4974226;28;20208;-63
2023/03/15 12:40:51;;;;;;;1.73;1.63;;;;;;;;;;4973846;28;20705;-63
2023/03/15 12:43:33;;;;;;;3.58;1.48;;;;;;;;;;4973471;28;20860;-63
2023/03/15 12:46:00;;;;;;;2.38;1.30;;;;;;;;;;4973791;28;20194;-63
2023/03/15 12:48:28;;;;;;;2.28;1.50;;;;;;;;;;4974318;28;20197;-63
2023/03/15 12:50:57;;;;;;;3.63;1.60;;;;;;;;;;4973966;28;20212;-63
2023/03/15 12:53:36;;;;;;;11.52;1.65;;;;;;;;;;4973066;28;20229;-63
2023/03/15 12:56:28;;;;;;;2.85;1.85;;;;;;;;;;4974211;28;20600;-63
2023/03/15 12:59:00;;;;;;;8.93;1.80;;;;;;;;;;4974303;28;20208;-63
2023/03/15 13:01:28;;;;;;;3.78;1.85;;;;;;;;;;4974154;28;20216;-63
2023/03/15 13:03:57;;;;;;;5.82;1.80;;;;;;;;;;4973597;28;20279;-63
2023/03/15 13:06:32;;;;;;;5.60;2.75;;;;;;;;;;4973713;28;20560;-64
2023/03/15 13:09:03;;;;;;;2.65;2.28;;;;;;;;;;4973542;28;20192;-63
2023/03/15 13:11:33;;;;;;;3.03;1.48;;;;;;;;;;4974267;28;20193;-64
2023/03/15 13:14:08;;;;;;;2.22;1.88;;;;;;;;;;4973477;28;20197;-63
2023/03/15 13:16:37;;;;;;;3.30;1.52;;;;;;;;;;4977050;28;20717;-64
2023/03/15 13:19:14;;;;;;;2.15;1.60;;;;;;;;;;4977238;28;20197;-63
2023/03/15 13:21:51;;;;;;;4.53;1.73;;;;;;;;;;4977042;28;20209;-63
2023/03/15 13:24:22;;;;;;;4.35;2.40;;;;;;;;;;4977042;28;20236;-63
2023/03/15 13:26:53;;;;;;;1.85;1.40;;;;;;;;;;4977336;28;20182;-64
2023/03/15 13:29:22;;;;;;;4.15;1.75;;;;;;;;;;4977547;28;20186;-63
2023/03/15 13:32:00;;;;;;;1.50;1.35;;;;;;;;;;4977480;28;20201;-64
2023/03/15 13:34:30;;;;;;;2.47;1.33;;;;;;;;;;4977089;28;20188;-63
2023/03/15 13:36:59;;;;;;;3.40;1.25;;;;;;;;;;4977031;28;20201;-63
2023/03/15 13:39:28;;;;;;;3.90;2.00;;;;;;;;;;4976392;28;20193;-64
2023/03/15 13:41:59;;;;;;;4.82;1.92;;;;;;;;;;4976912;28;20227;-63
2023/03/15 13:44:27;;;;;;;2.10;1.50;;;;;;;;;;4976259;28;20566;-64
2023/03/15 13:46:54;;;;;;;4.63;2.28;;;;;;;;;;4976637;28;20208;-63
2023/03/15 13:49:21;;;;;;;2.15;1.95;;;;;;;;;;4977343;28;20200;-64
2023/03/15 13:51:49;;;;;;;2.22;2.00;;;;;;;;;;4976765;28;20290;-65
2023/03/15 13:54:25;;;;;;;2.50;1.50;;;;;;;;;;4976117;28;20459;-64
2023/03/15 13:57:02;;;;;;;4.33;1.33;;;;;;;;;;4976699;28;20604;-64
2023/03/15 13:59:32;;;;;;;1.50;1.40;;;;;;;;;;4976172;28;20449;-64
2023/03/15 14:02:01;;;;;;;2.55;1.60;;;;;;;;;;4976470;28;20284;-63
2023/03/15 14:04:30;;;;;;;1.50;1.40;;;;;;;;;;4976180;28;20193;-64
2023/03/15 14:07:11;;;;;;;2.22;1.42;;;;;;;;;;4976351;28;20449;-63
2023/03/15 14:09:38;;;;;;;1.53;1.30;;;;;;;;;;4976862;28;20189;-64
2023/03/15 14:12:17;;;;;;;2.83;1.50;;;;;;;;;;4976449;28;20835;-64
2023/03/15 14:14:49;;;;;;;3.63;1.77;;;;;;;;;;4976532;28;20193;-63
2023/03/15 14:17:19;;;;;;;3.30;1.48;;;;;;;;;;4976714;28;20433;-64
2023/03/15 14:19:53;;;;;;;5.45;1.50;;;;;;;;;;4976061;28;20212;-64
2023/03/15 14:22:20;;;;;;;4.60;1.40;;;;;;;;;;4976325;28;20300;-64
2023/03/15 14:24:48;;;;;;;2.20;1.58;;;;;;;;;;4976064;28;20197;-63
2023/03/15 14:27:18;;;;;;;1.65;1.30;;;;;;;;;;4975482;28;20194;-64
2023/03/15 14:29:47;;;;;;;2.63;1.40;;;;;;;;;;4976151;28;20276;-64
2023/03/15 14:32:24;;;;;;;2.08;1.33;;;;;;;;;;4976208;28;20293;-64
2023/03/15 14:34:51;;;;;;;4.78;2.00;;;;;;;;;;4976454;28;20195;-64
2023/03/15 14:37:32;;;;;;;2.80;1.88;;;;;;;;;;4976031;28;20233;-63
2023/03/15 14:40:12;;;;;;;4.00;1.80;;;;;;;;;;4975192;28;20230;-63
2023/03/15 14:42:41;;;;;;;6.07;1.58;;;;;;;;;;4975874;28;20441;-63
2023/03/15 14:45:09;;;;;;;2.28;1.33;;;;;;;;;;4975235;28;20673;-64
2023/03/15 14:47:39;;;;;;;5.90;3.35;;;;;;;;;;4975406;28;20236;-63
2023/03/15 14:50:10;;;;;;;4.38;2.85;;;;;;;;;;4975473;28;20202;-63
2023/03/15 14:52:37;;;;;;;2.40;1.57;;;;;;;;;;4975593;28;20197;-64
2023/03/15 14:55:04;;;;;;;4.15;1.92;;;;;;;;;;4975942;28;20437;-64